map of TPP home
TPP - Airport
Location
City:  Tarapoto, San Martín, Perú
Name:Capitán FAP Guillermo del Castillo Paredes Airport
ICAO:SPST
IATA:TPP

Details
Type:Airport (Aerodrome, Airfield)
Use:Public/Civil
Latitude:6°30'31"S (-6.508743)
Longitude:76°22'24"W (-76.373246)
Elevation:868 ft (265 m)
Variation:3.88°W (WMM2015 magnetic declination)
-0.17° annual change
Runways:1
Longest:8530 × 148 ft (2600 × 45 m), paved

Time
Time Zone:UTC-5
Local Time:

Weather
METAR:SPST 181300Z 00000KT 9999 FEW020 25/22 Q1012 RMK BIRD HAZARD RWY 17/35 PP000
TAF:SPST 181100Z 1812/1912 VRB02KT 9999 SCT020 TX35/1819Z TN21/1911Z
BECMG 1816/1818 13004KT SCT025 SCT080
TEMPO 1823/1902 23005KT FEW025

Related Locations
Nearby:
Farthest:RDN: 12369 mi / 19906 km
Redang [Redang Airport], Redang Island (Pulau Redang), 11, MY

Find:

   beyond  
but within

Other Information
Maps:
NOTAMs:
Links:
Sources:

  
  • flag of Perú
  

Sectional Chart

Flight Planning
at skyvector.com

Satellite Image

Google Maps Satellite view

 

Copyright © 2004-2018 Karl L. Swartz. All rights reserved.
The Great Circle Mapper name and logo are trademarks of the Great Circle Mapper.
All other trademarks mentioned herein belong to their respective owners.
Please see credits for attibutions and further copyright information.

  Follow gcmap on Facebook Follow gcmap on Twitter Follow gcmap on Google+ GCmap on LinkedIn

hCard Microformat

Geo Microformat